Time;durP1;ratioP1;P1;durP2;ratioP2;P2;SDS_P1;SDS_P2;PMS_P1;PMS_P2;Temp;Humidity;BMP_temperature;BMP_pressure;BME280_temperature;BME280_humidity;BME280_pressure;Samples;Min_cycle;Max_cycle;Signal;HPM_P1;HPM_P2
2023/06/08 00:01:25;;;;;;;5.88;3.38;;;19.10;92.90;;;;;;5096675;28;20024;-83
2023/06/08 00:03:52;;;;;;;4.00;2.78;;;18.90;93.00;;;;;;5097088;28;20024;-83
2023/06/08 00:06:20;;;;;;;3.92;3.03;;;18.90;93.10;;;;;;5096548;28;20066;-82
2023/06/08 00:08:46;;;;;;;3.85;2.83;;;18.90;93.00;;;;;;5097346;28;20031;-81
2023/06/08 00:11:12;;;;;;;4.90;3.47;;;18.90;93.10;;;;;;5097884;28;20028;-82
2023/06/08 00:13:37;;;;;;;5.38;3.10;;;18.90;93.10;;;;;;5096834;28;20114;-82
2023/06/08 00:16:04;;;;;;;4.15;3.30;;;18.90;93.40;;;;;;5097130;28;20063;-82
2023/06/08 00:18:36;;;;;;;3.67;3.35;;;18.80;93.70;;;;;;5097423;28;20024;-82
2023/06/08 00:21:02;;;;;;;3.28;2.97;;;18.80;93.90;;;;;;5095906;28;20381;-82
2023/06/08 00:23:28;;;;;;;5.45;3.45;;;18.70;94.10;;;;;;5096393;28;20032;-83
2023/06/08 00:25:54;;;;;;;7.55;4.20;;;18.70;94.40;;;;;;5095887;28;20039;-82
2023/06/08 00:28:20;;;;;;;4.47;3.67;;;18.60;94.60;;;;;;5096605;28;20030;-82
2023/06/08 00:30:46;;;;;;;4.90;3.65;;;18.60;95.00;;;;;;5095831;28;20020;-78
2023/06/08 00:33:12;;;;;;;4.00;3.20;;;18.50;95.30;;;;;;5096130;28;20039;-82
2023/06/08 00:35:37;;;;;;;5.43;3.10;;;18.40;95.50;;;;;;5097398;28;20077;-82
2023/06/08 00:38:03;;;;;;;4.88;3.30;;;18.30;95.90;;;;;;5095635;28;20028;-82
2023/06/08 00:40:28;;;;;;;4.57;3.22;;;18.20;96.10;;;;;;5095978;28;20040;-82
2023/06/08 00:42:54;;;;;;;5.47;3.42;;;18.20;96.30;;;;;;5095169;28;20024;-82
2023/06/08 00:45:19;;;;;;;4.40;3.22;;;18.20;96.30;;;;;;5096906;28;20032;-82
2023/06/08 00:47:46;;;;;;;4.63;3.20;;;18.30;96.30;;;;;;5095924;28;20024;-82
2023/06/08 00:50:12;;;;;;;3.90;2.83;;;18.30;96.20;;;;;;5101383;28;20502;-82
2023/06/08 00:52:39;;;;;;;6.05;3.15;;;18.30;96.20;;;;;;5115810;28;20077;-82
2023/06/08 00:55:06;;;;;;;4.97;3.40;;;18.30;96.10;;;;;;5115665;28;20058;-82
2023/06/08 00:57:33;;;;;;;3.10;2.80;;;18.40;96.10;;;;;;5115809;28;20028;-82
2023/06/08 01:00:04;;;;;;;4.53;2.97;;;18.30;96.20;;;;;;5116731;28;20027;-82
2023/06/08 01:02:31;;;;;;;5.68;3.28;;;18.30;96.60;;;;;;5117192;28;20046;-82
2023/06/08 01:04:56;;;;;;;5.97;3.33;;;18.10;97.00;;;;;;5116401;28;20027;-82
2023/06/08 01:07:28;;;;;;;4.03;3.60;;;18.00;97.40;;;;;;5115804;28;20035;-82
2023/06/08 01:09:57;;;;;;;3.83;2.80;;;17.90;97.80;;;;;;5116541;28;20371;-82
2023/06/08 01:12:35;;;;;;;5.05;3.20;;;17.90;97.70;;;;;;5115842;28;20050;-82
2023/06/08 01:15:15;;;;;;;3.95;3.00;;;17.90;97.70;;;;;;5116227;28;20051;-81
2023/06/08 01:17:45;;;;;;;3.50;3.20;;;17.80;97.90;;;;;;5116860;28;20055;-82
2023/06/08 01:20:34;;;;;;;4.78;2.92;;;17.90;97.90;;;;;;5115282;28;20485;-82
2023/06/08 01:23:20;;;;;;;3.50;3.20;;;17.90;97.90;;;;;;5073536;28;20043;-82
2023/06/08 01:25:48;;;;;;;5.00;2.97;;;17.90;97.90;;;;;;5115124;28;20150;-82
2023/06/08 01:28:13;;;;;;;4.75;2.65;;;17.80;98.00;;;;;;5116077;28;20038;-82
2023/06/08 01:30:48;;;;;;;3.30;2.97;;;17.80;98.10;;;;;;5115901;28;20024;-82
2023/06/08 01:33:20;;;;;;;3.85;2.85;;;17.80;98.10;;;;;;5116277;28;20032;-82
2023/06/08 01:36:05;;;;;;;3.78;3.17;;;17.80;98.10;;;;;;5115258;28;20035;-82
2023/06/08 01:39:05;;;;;;;3.78;2.90;;;17.70;98.70;;;;;;5116253;28;20135;-82
2023/06/08 01:41:37;;;;;;;4.25;3.25;;;17.80;98.30;;;;;;5116317;28;20075;-82
2023/06/08 01:44:06;;;;;;;3.35;3.00;;;17.80;98.40;;;;;;5115453;28;20019;-82
2023/06/08 01:46:32;;;;;;;5.00;3.60;;;17.60;98.70;;;;;;5116108;28;20047;-82
2023/06/08 01:49:01;;;;;;;3.90;3.42;;;17.50;99.20;;;;;;5115412;28;20027;-82
2023/06/08 01:51:28;;;;;;;4.70;3.13;;;17.30;99.50;;;;;;5115153;28;20027;-82
2023/06/08 01:54:06;;;;;;;5.95;3.30;;;17.30;99.90;;;;;;5115679;28;20487;-81
2023/06/08 01:56:34;;;;;;;3.80;3.08;;;17.40;99.80;;;;;;5115279;28;20118;-82
2023/06/08 01:59:00;;;;;;;3.63;3.10;;;17.40;99.80;;;;;;5115436;28;20452;-83
2023/06/08 02:01:26;;;;;;;3.60;3.00;;;17.40;99.70;;;;;;5115867;28;20557;-83
2023/06/08 02:03:52;;;;;;;4.38;3.67;;;17.50;99.80;;;;;;5114671;28;20027;-79
2023/06/08 02:06:18;;;;;;;4.05;3.35;;;17.40;99.80;;;;;;5114840;28;20414;-83
2023/06/08 02:08:45;;;;;;;5.32;3.30;;;17.50;99.80;;;;;;5115521;28;20028;-82
2023/06/08 02:11:11;;;;;;;4.05;3.17;;;17.40;99.90;;;;;;5114026;28;20092;-83
2023/06/08 02:13:40;;;;;;;4.40;3.38;;;17.40;99.90;;;;;;5115867;28;20453;-83
2023/06/08 02:16:06;;;;;;;3.25;2.95;;;17.30;99.90;;;;;;5113462;28;20028;-84
2023/06/08 02:18:34;;;;;;;4.82;3.00;;;17.30;99.90;;;;;;5114433;28;20027;-83
2023/06/08 02:21:02;;;;;;;5.72;2.90;;;17.40;99.90;;;;;;5113788;28;20118;-82
2023/06/08 02:23:27;;;;;;;4.05;3.13;;;17.40;99.90;;;;;;5114161;28;20032;-82
2023/06/08 02:25:53;;;;;;;4.10;2.92;;;17.40;99.90;;;;;;5113575;28;20494;-80
2023/06/08 02:28:19;;;;;;;5.93;3.05;;;17.40;99.90;;;;;;5114445;28;20024;-82
2023/06/08 02:30:45;;;;;;;4.85;3.40;;;17.40;99.90;;;;;;5114373;28;20024;-82
2023/06/08 02:33:11;;;;;;;3.63;3.22;;;17.40;99.90;;;;;;5114775;28;20031;-83
2023/06/08 02:35:37;;;;;;;4.53;3.15;;;17.40;99.90;;;;;;5114366;28;20038;-83
2023/06/08 02:38:03;;;;;;;3.45;2.90;;;17.40;99.90;;;;;;5115121;28;20023;-82
2023/06/08 02:40:28;;;;;;;4.53;3.08;;;17.30;99.90;;;;;;5114042;28;20426;-82
2023/06/08 02:42:54;;;;;;;3.35;3.05;;;17.30;99.90;;;;;;5114071;28;20081;-80
2023/06/08 02:45:19;;;;;;;4.05;3.20;;;17.40;99.90;;;;;;5115266;28;20067;-82
2023/06/08 02:47:45;;;;;;;4.07;3.00;;;17.40;99.90;;;;;;5113802;28;20122;-82
2023/06/08 02:50:10;;;;;;;3.60;3.00;;;17.30;99.90;;;;;;5113458;28;20049;-82
2023/06/08 02:52:36;;;;;;;3.42;3.13;;;17.30;99.90;;;;;;5114069;28;20461;-82
2023/06/08 02:55:02;;;;;;;3.67;3.13;;;17.30;99.90;;;;;;5113975;28;20027;-82
2023/06/08 02:57:27;;;;;;;6.05;2.95;;;17.20;99.90;;;;;;5113677;28;20068;-82
2023/06/08 02:59:53;;;;;;;4.68;3.13;;;17.20;99.90;;;;;;5113781;28;20023;-82
2023/06/08 03:02:19;;;;;;;3.90;3.03;;;17.10;99.90;;;;;;5113525;28;20101;-82
2023/06/08 03:04:45;;;;;;;4.75;3.25;;;17.10;99.90;;;;;;5113780;28;20028;-82
2023/06/08 03:07:15;;;;;;;4.30;3.20;;;17.10;99.90;;;;;;5114139;28;20023;-82
2023/06/08 03:09:41;;;;;;;3.80;3.20;;;17.10;99.90;;;;;;5114103;28;20478;-82
2023/06/08 03:12:09;;;;;;;4.10;3.70;;;17.00;99.90;;;;;;5114651;28;20069;-82
2023/06/08 03:14:35;;;;;;;4.40;3.55;;;17.00;99.90;;;;;;5113548;28;20027;-82
2023/06/08 03:17:03;;;;;;;5.18;3.65;;;17.00;99.90;;;;;;5113007;28;20425;-82
2023/06/08 03:19:32;;;;;;;5.00;4.00;;;17.10;99.90;;;;;;5113794;28;20062;-82
2023/06/08 03:22:04;;;;;;;4.40;3.70;;;17.00;99.90;;;;;;5112893;28;20384;-81
2023/06/08 03:24:31;;;;;;;6.95;3.83;;;16.90;99.90;;;;;;5113587;28;20031;-82
2023/06/08 03:26:58;;;;;;;5.78;4.53;;;16.90;99.90;;;;;;5114321;28;20030;-77
2023/06/08 03:29:24;;;;;;;7.55;4.20;;;16.90;99.90;;;;;;5113712;28;20027;-82
2023/06/08 03:31:50;;;;;;;7.18;4.50;;;16.90;99.90;;;;;;5113666;28;20046;-80
2023/06/08 03:34:17;;;;;;;7.07;4.30;;;16.90;99.90;;;;;;5113348;28;20115;-82
2023/06/08 03:36:43;;;;;;;6.70;4.32;;;16.80;99.90;;;;;;5113879;28;20122;-81
2023/06/08 03:39:09;;;;;;;4.82;4.20;;;16.90;99.90;;;;;;5113904;28;20016;-82
2023/06/08 03:41:35;;;;;;;6.65;4.20;;;16.80;99.90;;;;;;5114200;28;20177;-82
2023/06/08 03:44:01;;;;;;;7.22;5.60;;;16.80;99.90;;;;;;5113640;28;20440;-81
2023/06/08 03:46:26;;;;;;;6.88;5.00;;;16.90;99.90;;;;;;5114505;28;20518;-82
2023/06/08 03:48:52;;;;;;;12.93;6.05;;;16.90;99.90;;;;;;5113215;28;20024;-82
2023/06/08 03:51:22;;;;;;;8.68;5.75;;;16.90;99.90;;;;;;5112695;28;20092;-81
2023/06/08 03:53:49;;;;;;;7.60;5.90;;;16.80;99.90;;;;;;5114343;28;20028;-81
2023/06/08 03:56:15;;;;;;;7.47;5.28;;;16.80;99.90;;;;;;5112827;28;20034;-82
2023/06/08 03:58:41;;;;;;;7.57;5.47;;;16.80;99.90;;;;;;5114234;28;20098;-83
2023/06/08 04:01:11;;;;;;;7.20;5.30;;;16.80;99.90;;;;;;5112804;28;20032;-81
2023/06/08 04:03:37;;;;;;;7.68;5.25;;;16.80;99.90;;;;;;5113064;28;20057;-82
2023/06/08 04:06:05;;;;;;;6.97;5.05;;;16.70;99.90;;;;;;5113911;28;20032;-79
2023/06/08 04:08:31;;;;;;;8.80;5.50;;;16.80;99.90;;;;;;5113263;28;20034;-83
2023/06/08 04:11:00;;;;;;;11.05;5.78;;;16.70;99.90;;;;;;5113100;28;20019;-82
2023/06/08 04:13:26;;;;;;;9.25;5.10;;;16.80;99.90;;;;;;5112760;28;20468;-82
2023/06/08 04:15:52;;;;;;;7.63;4.28;;;16.70;99.90;;;;;;5113997;28;20039;-83
2023/06/08 04:18:18;;;;;;;4.88;4.38;;;16.80;99.90;;;;;;5112836;28;20028;-82
2023/06/08 04:20:43;;;;;;;6.47;4.57;;;16.80;99.90;;;;;;5113191;28;20346;-83
2023/06/08 04:23:11;;;;;;;7.25;4.63;;;16.80;99.90;;;;;;5112074;28;20445;-82
2023/06/08 04:25:36;;;;;;;7.15;5.10;;;16.80;99.90;;;;;;5113946;28;20032;-82
2023/06/08 04:28:03;;;;;;;9.27;4.57;;;16.80;99.90;;;;;;5116093;28;20101;-78
2023/06/08 04:30:28;;;;;;;6.57;5.07;;;16.90;99.90;;;;;;5116440;28;20430;-83
2023/06/08 04:32:55;;;;;;;7.20;5.40;;;16.90;99.90;;;;;;5116651;28;20031;-82
2023/06/08 04:35:21;;;;;;;7.82;5.90;;;16.90;99.90;;;;;;5115937;28;20162;-82
2023/06/08 04:37:47;;;;;;;9.73;5.72;;;16.90;99.90;;;;;;5116647;28;20449;-82
2023/06/08 04:40:13;;;;;;;13.57;6.80;;;16.90;99.90;;;;;;5116522;28;20063;-82
2023/06/08 04:42:40;;;;;;;9.68;6.25;;;17.00;99.90;;;;;;5116426;28;20023;-82
2023/06/08 04:45:08;;;;;;;8.98;6.32;;;17.00;99.90;;;;;;5116126;28;20031;-81
2023/06/08 04:47:35;;;;;;;7.05;5.40;;;17.10;99.90;;;;;;5117485;28;20027;-82
2023/06/08 04:50:07;;;;;;;9.00;6.10;;;17.10;99.90;;;;;;5117592;28;20046;-81
2023/06/08 04:52:37;;;;;;;7.65;6.03;;;17.20;99.90;;;;;;5117438;28;20026;-82
2023/06/08 04:55:03;;;;;;;9.07;6.13;;;17.20;99.90;;;;;;5116862;28;20028;-79
2023/06/08 04:57:29;;;;;;;10.52;6.53;;;17.30;99.90;;;;;;5116799;28;20133;-82
2023/06/08 04:59:55;;;;;;;11.13;6.28;;;17.30;99.90;;;;;;5116600;28;20520;-82
2023/06/08 05:02:21;;;;;;;8.52;6.30;;;17.40;99.90;;;;;;5117088;28;20031;-82
2023/06/08 05:04:46;;;;;;;7.78;5.70;;;17.50;99.90;;;;;;5122003;28;20028;-82
2023/06/08 05:07:12;;;;;;;10.98;6.05;;;17.50;99.90;;;;;;5116100;28;20023;-82
2023/06/08 05:09:38;;;;;;;7.43;5.70;;;17.70;99.90;;;;;;5115808;28;20456;-82
2023/06/08 05:12:03;;;;;;;7.15;5.65;;;17.90;99.90;;;;;;5115682;28;20020;-79
2023/06/08 05:14:29;;;;;;;12.32;5.88;;;18.00;99.90;;;;;;5116905;28;20019;-82
2023/06/08 05:16:55;;;;;;;5.95;5.10;;;18.10;99.90;;;;;;5117176;28;20023;-82
2023/06/08 05:19:20;;;;;;;7.13;5.68;;;18.20;99.90;;;;;;5116548;28;20468;-81
2023/06/08 05:21:46;;;;;;;7.15;5.40;;;18.40;99.90;;;;;;5115637;28;20034;-81
2023/06/08 05:24:12;;;;;;;7.32;5.75;;;18.40;99.90;;;;;;5114682;28;20036;-81
2023/06/08 05:26:39;;;;;;;7.63;5.50;;;18.50;99.90;;;;;;5116429;28;20028;-81
2023/06/08 05:29:04;;;;;;;9.38;6.13;;;18.60;99.90;;;;;;5116381;28;20532;-78
2023/06/08 05:31:30;;;;;;;6.93;5.47;;;18.70;99.90;;;;;;5115641;28;20069;-81
2023/06/08 05:33:56;;;;;;;7.07;5.57;;;18.70;99.90;;;;;;5115446;28;20027;-81
2023/06/08 05:36:21;;;;;;;6.78;5.55;;;18.70;99.90;;;;;;5114814;28;20028;-80
2023/06/08 05:38:47;;;;;;;5.95;5.15;;;18.70;99.90;;;;;;5115410;28;20024;-82
2023/06/08 05:41:12;;;;;;;7.15;5.43;;;18.80;99.90;;;;;;5114474;28;20373;-81
2023/06/08 05:43:38;;;;;;;6.63;5.63;;;18.80;99.90;;;;;;5115087;28;20115;-81
2023/06/08 05:46:03;;;;;;;11.30;6.38;;;18.80;99.90;;;;;;5115510;28;20032;-81
2023/06/08 05:48:29;;;;;;;12.90;6.68;;;18.80;99.90;;;;;;5114852;28;20062;-81
2023/06/08 05:50:55;;;;;;;9.02;6.40;;;18.70;99.90;;;;;;5115105;28;20034;-81
2023/06/08 05:53:20;;;;;;;14.13;6.97;;;18.60;99.90;;;;;;5115415;28;20032;-82
2023/06/08 05:55:46;;;;;;;14.63;7.75;;;18.50;99.90;;;;;;5114954;28;20028;-82
2023/06/08 05:58:12;;;;;;;12.25;7.25;;;18.40;99.90;;;;;;5115991;28;20415;-80
2023/06/08 06:00:37;;;;;;;11.35;7.05;;;18.30;99.90;;;;;;5116082;28;20031;-81
2023/06/08 06:03:03;;;;;;;13.20;7.47;;;18.30;99.90;;;;;;5118880;28;20543;-82
2023/06/08 06:05:29;;;;;;;10.45;7.32;;;18.30;99.90;;;;;;5116596;28;20091;-82
2023/06/08 06:07:54;;;;;;;10.32;6.80;;;18.20;99.90;;;;;;5115269;28;20032;-82
2023/06/08 06:10:20;;;;;;;11.98;7.80;;;18.30;99.90;;;;;;5114229;28;20449;-82
2023/06/08 06:12:46;;;;;;;11.60;7.55;;;18.30;99.90;;;;;;5114325;28;20429;-82
2023/06/08 06:15:12;;;;;;;11.52;7.68;;;18.30;99.90;;;;;;5106344;27;20035;-82
2023/06/08 06:17:38;;;;;;;13.82;8.48;;;18.30;99.90;;;;;;5114651;28;20062;-82
2023/06/08 06:20:07;;;;;;;10.70;7.43;;;18.30;99.90;;;;;;5113949;28;20478;-82
2023/06/08 06:22:32;;;;;;;10.75;7.82;;;18.30;99.90;;;;;;5115955;27;20057;-82
2023/06/08 06:24:58;;;;;;;13.70;8.50;;;18.30;99.90;;;;;;5125645;27;20027;-82
2023/06/08 06:27:23;;;;;;;14.00;8.98;;;18.30;99.90;;;;;;5134363;27;20031;-82
2023/06/08 06:29:49;;;;;;;13.10;8.05;;;18.30;99.90;;;;;;5119635;27;20032;-82
2023/06/08 06:32:15;;;;;;;12.95;8.85;;;18.30;99.90;;;;;;5113485;28;20571;-82
2023/06/08 06:34:42;;;;;;;11.65;8.70;;;18.30;99.90;;;;;;5121171;27;20027;-82
2023/06/08 06:37:07;;;;;;;14.57;9.02;;;18.40;99.90;;;;;;5113376;28;20024;-80
2023/06/08 06:39:33;;;;;;;12.98;8.45;;;18.40;99.90;;;;;;5123804;27;20022;-81
2023/06/08 06:42:00;;;;;;;12.57;9.13;;;18.40;99.90;;;;;;5120849;27;20049;-81
2023/06/08 06:44:26;;;;;;;12.40;9.25;;;18.40;99.90;;;;;;5112738;28;20027;-82
2023/06/08 06:46:51;;;;;;;14.25;8.85;;;18.50;99.90;;;;;;5117168;27;20086;-82
2023/06/08 06:49:17;;;;;;;10.90;8.40;;;18.50;99.90;;;;;;5127801;27;20023;-81
2023/06/08 06:51:43;;;;;;;12.73;8.98;;;18.50;99.90;;;;;;5114257;28;20035;-81
2023/06/08 06:54:08;;;;;;;15.98;9.43;;;18.60;99.90;;;;;;5113742;28;20028;-80
2023/06/08 06:56:34;;;;;;;13.90;9.60;;;18.60;99.90;;;;;;5112909;28;20028;-82
2023/06/08 06:59:00;;;;;;;12.60;9.25;;;18.60;99.90;;;;;;5118535;27;20456;-81
2023/06/08 07:01:26;;;;;;;14.07;9.13;;;18.50;99.90;;;;;;5134145;27;20020;-82
2023/06/08 07:03:52;;;;;;;14.40;9.20;;;18.50;99.90;;;;;;5129318;27;20047;-82
2023/06/08 07:06:23;;;;;;;12.48;8.80;;;18.60;99.90;;;;;;5113534;28;20128;-82
2023/06/08 07:08:48;;;;;;;11.02;8.45;;;18.50;99.90;;;;;;5113336;28;20077;-82
2023/06/08 07:11:14;;;;;;;17.17;9.05;;;18.60;99.90;;;;;;5121246;27;20361;-82
2023/06/08 07:13:39;;;;;;;13.13;8.45;;;18.50;99.90;;;;;;5127290;27;20593;-83
2023/06/08 07:16:06;;;;;;;12.65;8.95;;;18.50;99.90;;;;;;5128969;27;20031;-83
2023/06/08 07:18:31;;;;;;;14.25;9.20;;;18.50;99.90;;;;;;5132420;27;20019;-83
2023/06/08 07:20:57;;;;;;;10.75;8.50;;;18.50;99.90;;;;;;5119692;27;20076;-82
2023/06/08 07:23:23;;;;;;;12.15;9.43;;;18.60;99.90;;;;;;5125675;27;20036;-83
2023/06/08 07:25:48;;;;;;;11.25;9.52;;;18.60;99.90;;;;;;5133169;27;20038;-80
2023/06/08 07:28:14;;;;;;;15.93;10.60;;;18.70;99.90;;;;;;5117478;27;20521;-83
2023/06/08 07:30:40;;;;;;;12.27;9.02;;;18.70;99.90;;;;;;5129547;28;20605;-83
2023/06/08 07:33:06;;;;;;;14.50;9.35;;;18.70;99.90;;;;;;5119663;28;20051;-82
2023/06/08 07:35:32;;;;;;;13.25;9.70;;;18.80;99.90;;;;;;5134140;28;20038;-83
2023/06/08 07:37:57;;;;;;;12.73;9.23;;;18.90;99.90;;;;;;5133404;28;20019;-83
2023/06/08 07:40:23;;;;;;;12.40;9.75;;;18.90;99.90;;;;;;5134501;28;20023;-83
2023/06/08 07:42:48;;;;;;;13.45;9.30;;;19.00;99.90;;;;;;5136557;28;20024;-83
2023/06/08 07:45:14;;;;;;;13.02;9.25;;;19.00;99.90;;;;;;5116444;28;20031;-82
2023/06/08 07:47:41;;;;;;;14.35;9.73;;;19.10;99.90;;;;;;5115984;28;20098;-83
2023/06/08 07:50:08;;;;;;;13.90;9.02;;;19.30;99.90;;;;;;5117121;28;20043;-82
2023/06/08 07:52:34;;;;;;;14.38;9.40;;;19.40;99.90;;;;;;5114593;28;20028;-83
2023/06/08 07:55:00;;;;;;;12.27;8.77;;;19.50;99.90;;;;;;5125226;28;20038;-83
2023/06/08 07:57:26;;;;;;;11.60;9.80;;;19.70;99.90;;;;;;5114032;28;20023;-82
2023/06/08 07:59:52;;;;;;;13.90;9.32;;;19.80;99.90;;;;;;5114402;28;20035;-82
2023/06/08 08:02:17;;;;;;;12.60;9.38;;;19.80;99.90;;;;;;5133823;27;20023;-82
2023/06/08 08:04:43;;;;;;;12.43;8.70;;;19.80;99.90;;;;;;5125399;27;20024;-82
2023/06/08 08:07:09;;;;;;;14.13;10.07;;;19.70;99.90;;;;;;5142204;27;20034;-80
2023/06/08 08:09:35;;;;;;;12.90;8.43;;;19.80;99.90;;;;;;5129708;27;20440;-83
2023/06/08 08:12:00;;;;;;;11.00;9.15;;;19.80;99.90;;;;;;5129930;27;20031;-82
2023/06/08 08:14:26;;;;;;;11.55;9.45;;;19.80;99.90;;;;;;5117908;27;20056;-83
2023/06/08 08:16:52;;;;;;;13.77;9.48;;;19.70;99.90;;;;;;5119935;27;20033;-83
2023/06/08 08:19:18;;;;;;;11.68;9.73;;;19.60;99.90;;;;;;5136452;27;20118;-83
2023/06/08 08:21:43;;;;;;;13.32;8.88;;;19.60;99.90;;;;;;5138165;27;20027;-83
2023/06/08 08:24:09;;;;;;;14.57;9.98;;;19.60;99.90;;;;;;5134997;27;20034;-79
2023/06/08 08:26:40;;;;;;;14.20;10.02;;;19.60;99.90;;;;;;5135617;27;20027;-83
2023/06/08 08:29:06;;;;;;;13.93;8.85;;;19.50;99.90;;;;;;5136556;27;20042;-83
2023/06/08 08:31:32;;;;;;;13.35;9.25;;;19.50;99.90;;;;;;5126038;27;20619;-83
2023/06/08 08:33:58;;;;;;;14.27;9.82;;;19.60;99.90;;;;;;5137646;27;20023;-83
2023/06/08 08:36:23;;;;;;;12.98;9.48;;;19.50;99.90;;;;;;5118888;27;20027;-83
2023/06/08 08:38:49;;;;;;;12.77;9.82;;;19.50;99.90;;;;;;5116012;28;20444;-83
2023/06/08 08:41:19;;;;;;;13.23;9.40;;;19.60;99.90;;;;;;5115031;28;20135;-82
2023/06/08 08:43:57;;;;;;;10.65;8.82;;;19.60;99.90;;;;;;5122350;27;20019;-83
2023/06/08 08:46:23;;;;;;;12.30;8.63;;;19.70;99.90;;;;;;5120309;27;20036;-83
2023/06/08 08:48:58;;;;;;;11.55;8.40;;;19.70;99.90;;;;;;5121570;27;20069;-83
2023/06/08 08:51:25;;;;;;;11.57;9.05;;;19.80;99.90;;;;;;5128236;27;20028;-83
2023/06/08 08:53:51;;;;;;;10.02;8.85;;;19.80;99.90;;;;;;5126806;27;20082;-83
2023/06/08 08:56:21;;;;;;;10.65;8.88;;;19.90;99.90;;;;;;5133041;27;20369;-82
2023/06/08 08:58:50;;;;;;;10.77;8.43;;;19.90;99.90;;;;;;5134473;27;20027;-83
2023/06/08 09:01:17;;;;;;;10.75;8.85;;;19.90;99.90;;;;;;5133642;27;20463;-83
2023/06/08 09:03:43;;;;;;;11.88;8.73;;;20.00;99.90;;;;;;5136781;27;20020;-83
2023/06/08 09:06:09;;;;;;;11.75;8.63;;;20.10;99.90;;;;;;5121398;27;20031;-80
2023/06/08 09:08:34;;;;;;;10.48;8.43;;;20.10;99.90;;;;;;5115395;28;20059;-83
2023/06/08 09:11:05;;;;;;;9.50;7.47;;;20.10;99.90;;;;;;5132069;27;20027;-82
2023/06/08 09:13:31;;;;;;;9.60;6.88;;;20.10;99.90;;;;;;5128780;27;20129;-83
2023/06/08 09:16:14;;;;;;;8.43;6.38;;;20.10;99.90;;;;;;5126018;27;20042;-83
2023/06/08 09:18:41;;;;;;;9.18;6.43;;;20.20;99.90;;;;;;5119363;27;20031;-83
2023/06/08 09:21:29;;;;;;;9.98;6.28;;;20.20;99.90;;;;;;5130293;27;20460;-83
2023/06/08 09:24:06;;;;;;;8.65;6.15;;;20.20;99.90;;;;;;5131375;27;20049;-83
2023/06/08 09:26:32;;;;;;;9.05;6.38;;;20.30;99.90;;;;;;5119112;27;20233;-82
2023/06/08 09:29:03;;;;;;;10.02;6.45;;;20.30;99.90;;;;;;5135737;27;20067;-83
2023/06/08 09:31:29;;;;;;;9.07;6.45;;;20.40;99.90;;;;;;5126606;27;20027;-82
2023/06/08 09:34:05;;;;;;;9.30;6.65;;;20.50;99.90;;;;;;5123654;27;20032;-82
2023/06/08 09:36:35;;;;;;;9.50;6.15;;;20.60;99.90;;;;;;5131868;27;20050;-82
2023/06/08 09:39:03;;;;;;;9.52;6.03;;;20.70;99.90;;;;;;5114451;28;20113;-83
2023/06/08 09:41:29;;;;;;;10.00;6.50;;;20.80;99.90;;;;;;5122712;27;20715;-83
2023/06/08 09:43:55;;;;;;;6.15;4.70;;;20.90;99.90;;;;;;5115681;27;20024;-83
2023/06/08 09:46:45;;;;;;;5.80;4.00;;;20.90;99.90;;;;;;5120699;27;20300;-83
2023/06/08 09:49:13;;;;;;;6.72;3.70;;;21.00;99.90;;;;;;5115060;28;20488;-80
2023/06/08 09:51:40;;;;;;;4.78;3.55;;;21.00;99.90;;;;;;5126822;27;20031;-83
2023/06/08 09:54:09;;;;;;;5.95;3.45;;;21.10;99.90;;;;;;5135059;27;20027;-83
2023/06/08 09:56:38;;;;;;;4.88;3.58;;;21.20;99.90;;;;;;5118695;27;20031;-82
2023/06/08 09:59:08;;;;;;;5.45;3.88;;;21.30;99.90;;;;;;5130160;27;20408;-83
2023/06/08 10:01:54;;;;;;;6.13;3.83;;;21.30;99.90;;;;;;5124501;27;20027;-83
2023/06/08 10:04:41;;;;;;;8.55;4.80;;;21.40;99.90;;;;;;5135054;27;20050;-83
2023/06/08 10:07:19;;;;;;;4.72;4.07;;;21.40;99.90;;;;;;5093993;28;20465;-83
2023/06/08 10:09:48;;;;;;;5.85;4.60;;;21.50;99.90;;;;;;5114342;27;20028;-83
2023/06/08 10:12:14;;;;;;;6.03;4.72;;;21.50;99.90;;;;;;5113947;28;20070;-81
2023/06/08 10:14:40;;;;;;;6.50;4.78;;;21.60;99.90;;;;;;5111506;27;20024;-83
2023/06/08 10:17:06;;;;;;;6.03;4.47;;;21.60;99.90;;;;;;5121546;27;20025;-82
2023/06/08 10:19:35;;;;;;;4.43;4.00;;;21.70;99.90;;;;;;5134937;27;20456;-83
2023/06/08 10:22:01;;;;;;;5.13;4.10;;;21.70;99.90;;;;;;5135660;27;20109;-84
2023/06/08 10:24:29;;;;;;;5.53;3.83;;;21.70;99.90;;;;;;5117305;27;20048;-83
2023/06/08 10:27:25;;;;;;;4.40;3.55;;;21.80;99.90;;;;;;5134604;27;20063;-81
2023/06/08 10:30:00;;;;;;;5.18;3.33;;;21.80;99.90;;;;;;5134138;27;20026;-81
2023/06/08 10:32:30;;;;;;;5.07;3.35;;;21.90;99.90;;;;;;5117944;27;20027;-84
2023/06/08 10:34:57;;;;;;;5.85;3.88;;;22.00;99.90;;;;;;5114331;27;20040;-83
2023/06/08 10:37:31;;;;;;;4.97;3.55;;;22.10;99.90;;;;;;5114438;28;20020;-83
2023/06/08 10:40:06;;;;;;;5.38;3.80;;;22.30;99.90;;;;;;5115015;28;20031;-83
2023/06/08 10:42:32;;;;;;;5.72;3.90;;;22.40;99.90;;;;;;5115105;28;20039;-83
2023/06/08 10:44:59;;;;;;;3.97;3.58;;;22.40;99.90;;;;;;5119579;27;20110;-83
2023/06/08 10:47:26;;;;;;;6.05;4.00;;;22.40;99.90;;;;;;5113244;28;20084;-83
2023/06/08 10:50:00;;;;;;;5.78;4.20;;;22.40;99.90;;;;;;5113093;28;20020;-83
2023/06/08 10:52:26;;;;;;;5.10;4.07;;;22.40;99.90;;;;;;5113424;27;20031;-83
2023/06/08 10:54:55;;;;;;;5.88;4.60;;;22.40;99.30;;;;;;5116919;27;20036;-82
2023/06/08 10:57:46;;;;;;;6.03;5.07;;;22.50;98.90;;;;;;5122400;27;20023;-82
2023/06/08 11:00:22;;;;;;;4.55;4.10;;;22.50;99.60;;;;;;5116497;27;20073;-82
2023/06/08 11:02:56;;;;;;;4.85;3.47;;;22.60;99.50;;;;;;5101629;27;20019;-83
2023/06/08 11:05:23;;;;;;;5.13;3.78;;;22.60;98.00;;;;;;5126062;27;20032;-83
2023/06/08 11:07:49;;;;;;;3.83;3.42;;;22.70;98.70;;;;;;5113686;28;20027;-82
2023/06/08 11:10:15;;;;;;;5.10;3.70;;;22.70;98.90;;;;;;5114192;27;20063;-83
2023/06/08 11:12:42;;;;;;;4.13;3.60;;;22.80;98.60;;;;;;5129911;27;20054;-83
2023/06/08 11:15:07;;;;;;;5.00;3.85;;;22.90;98.70;;;;;;5120273;27;20031;-83
2023/06/08 11:17:41;;;;;;;4.40;3.60;;;23.00;98.10;;;;;;5122584;27;20057;-82
2023/06/08 11:20:07;;;;;;;4.38;3.58;;;23.00;97.40;;;;;;5114548;28;20031;-82
2023/06/08 11:22:33;;;;;;;4.18;3.28;;;23.00;97.50;;;;;;5131141;27;20062;-81
2023/06/08 11:25:01;;;;;;;3.47;2.97;;;23.20;95.70;;;;;;5130635;27;20426;-81
2023/06/08 11:27:26;;;;;;;5.03;3.72;;;23.20;95.60;;;;;;5123455;27;20028;-82
2023/06/08 11:29:52;;;;;;;3.50;3.17;;;23.20;94.90;;;;;;5126372;28;20035;-81
2023/06/08 11:32:18;;;;;;;6.60;3.13;;;23.30;94.90;;;;;;5135059;28;20019;-82
2023/06/08 11:34:45;;;;;;;4.60;3.47;;;23.20;95.00;;;;;;5117676;28;20034;-83
2023/06/08 11:37:16;;;;;;;3.85;3.05;;;23.30;96.00;;;;;;5127615;27;20020;-82
2023/06/08 11:39:47;;;;;;;6.60;3.83;;;23.50;94.60;;;;;;5128441;27;20491;-82
2023/06/08 11:42:13;;;;;;;4.68;3.15;;;23.70;93.90;;;;;;5121831;27;20051;-82
2023/06/08 11:44:39;;;;;;;4.18;3.25;;;23.70;94.90;;;;;;5116451;27;20084;-82
2023/06/08 11:47:06;;;;;;;6.60;3.17;;;23.90;94.30;;;;;;5133094;27;20103;-83
2023/06/08 11:49:54;;;;;;;5.40;3.58;;;23.90;93.60;;;;;;5128485;27;20024;-82
2023/06/08 11:52:26;;;;;;;4.38;3.50;;;23.90;92.50;;;;;;5137353;27;20035;-83
2023/06/08 11:54:56;;;;;;;3.97;3.00;;;24.00;92.10;;;;;;5117244;27;20036;-83
2023/06/08 11:58:07;;;;;;;4.85;3.42;;;24.10;92.40;;;;;;5128559;27;20122;-83
2023/06/08 12:00:33;;;;;;;3.60;2.90;;;24.10;91.70;;;;;;5101312;27;20529;-82
2023/06/08 12:03:00;;;;;;;3.28;2.90;;;24.20;91.50;;;;;;5133185;27;20055;-83
2023/06/08 12:05:31;;;;;;;3.28;2.92;;;24.40;90.20;;;;;;5127950;27;20160;-83
2023/06/08 12:07:59;;;;;;;4.18;3.13;;;24.50;90.50;;;;;;5126183;27;20027;-83
2023/06/08 12:10:39;;;;;;;5.22;3.30;;;24.50;90.40;;;;;;5119004;27;20032;-83
2023/06/08 12:13:07;;;;;;;3.97;2.95;;;24.70;90.20;;;;;;5125424;27;20027;-83
2023/06/08 12:15:44;;;;;;;3.65;2.90;;;24.70;89.20;;;;;;5127544;27;20039;-83
2023/06/08 12:18:11;;;;;;;8.70;2.83;;;24.80;88.40;;;;;;5122729;27;20016;-79
2023/06/08 12:20:38;;;;;;;3.20;2.80;;;24.90;84.60;;;;;;5137063;27;20035;-82
2023/06/08 12:23:04;;;;;;;4.30;2.80;;;25.00;84.50;;;;;;5133740;27;20030;-83
2023/06/08 12:25:30;;;;;;;3.92;2.45;;;25.20;83.10;;;;;;5126765;27;20039;-83
2023/06/08 12:27:57;;;;;;;4.15;2.38;;;25.40;81.80;;;;;;5124902;27;20114;-83
2023/06/08 12:30:23;;;;;;;3.85;2.53;;;25.50;81.30;;;;;;5134396;27;20031;-83
2023/06/08 12:32:50;;;;;;;4.50;2.65;;;25.60;78.90;;;;;;5116439;28;20019;-83
2023/06/08 12:35:16;;;;;;;3.70;2.75;;;25.70;77.00;;;;;;5124777;27;20038;-83
2023/06/08 12:37:43;;;;;;;3.30;2.47;;;25.80;77.10;;;;;;5125673;27;20035;-83
2023/06/08 12:40:10;;;;;;;4.10;2.75;;;26.00;77.10;;;;;;5131022;27;20027;-83
2023/06/08 12:42:36;;;;;;;5.60;2.70;;;26.10;71.90;;;;;;5136295;27;20023;-82
2023/06/08 12:45:02;;;;;;;5.22;2.70;;;26.20;69.30;;;;;;5121826;27;20482;-82
2023/06/08 12:47:27;;;;;;;4.63;2.67;;;26.30;67.80;;;;;;5125814;27;20063;-83